Search for airport 
image banner adimage banner adimage banner ad
image banner ad

IA05 - Rathbun Lake Airport

Located in Centerville, United States

ICAO - IA05, IATA -

Data provided by Airmate  

General information

Coordinates: N40°51'15" W95°5'9"
Elevation is 1248 feet MSL.
 
View others Airports in Iowa

Operational data

Special qualification required
Current time UTC:
Current local time:
Weather at : KICL - Schenck Field ( 15 km )
METAR: KICL 151015Z AUTO 02004KT 10SM OVC065 17/17 A3012 RMK AO2
View NOTAMs / SUP AIP / TFR affecting this airport [VIEW]
Communications frequencies: [VIEW]

Runways:

RWY identifierQFULength (ft)Width (ft)SurfaceLDA (ft)
09225090GRASS
27225090GRASS

Airport contact information

Address: Centerville United States

Satellite view of IA05